sensor_id;sensor_type;location;lat;lon;timestamp;pressure;altitude;pressure_sealevel;temperature;humidity
41830;BME280;38614;43.472;23.936;2023-05-16T00:01:01;99788.16;;;15.51;100.00
41830;BME280;38614;43.472;23.936;2023-05-16T00:03:48;99800.47;;;15.50;100.00
41830;BME280;38614;43.472;23.936;2023-05-16T00:06:36;99781.81;;;15.47;100.00
41830;BME280;38614;43.472;23.936;2023-05-16T00:09:24;99778.25;;;15.32;100.00
41830;BME280;38614;43.472;23.936;2023-05-16T00:12:12;99778.25;;;15.32;100.00
41830;BME280;38614;43.472;23.936;2023-05-16T00:15:00;99793.34;;;15.24;100.00
41830;BME280;38614;43.472;23.936;2023-05-16T00:17:48;99793.34;;;15.24;100.00
41830;BME280;38614;43.472;23.936;2023-05-16T00:20:36;99737.72;;;14.88;100.00
41830;BME280;38614;43.472;23.936;2023-05-16T00:23:26;99771.91;;;15.14;100.00
41830;BME280;38614;43.472;23.936;2023-05-16T00:26:14;99777.47;;;15.03;100.00
41830;BME280;38614;43.472;23.936;2023-05-16T00:29:03;99801.72;;;15.09;100.00
41830;BME280;38614;43.472;23.936;2023-05-16T00:31:54;99792.59;;;15.02;100.00
41830;BME280;38614;43.472;23.936;2023-05-16T00:34:42;99813.66;;;15.10;100.00
41830;BME280;38614;43.472;23.936;2023-05-16T00:37:30;99788.22;;;15.01;100.00
41830;BME280;38614;43.472;23.936;2023-05-16T00:40:17;99796.94;;;15.03;100.00
41830;BME280;38614;43.472;23.936;2023-05-16T00:43:05;99785.03;;;14.85;100.00
41830;BME280;38614;43.472;23.936;2023-05-16T00:45:53;99799.34;;;14.94;100.00
41830;BME280;38614;43.472;23.936;2023-05-16T00:48:43;99794.16;;;14.96;100.00
41830;BME280;38614;43.472;23.936;2023-05-16T00:51:30;99793.34;;;14.88;100.00
41830;BME280;38614;43.472;23.936;2023-05-16T00:54:21;99780.63;;;14.76;100.00
41830;BME280;38614;43.472;23.936;2023-05-16T00:57:12;99792.97;;;14.86;100.00
41830;BME280;38614;43.472;23.936;2023-05-16T01:00:00;99786.22;;;14.87;100.00
41830;BME280;38614;43.472;23.936;2023-05-16T01:02:48;99784.63;;;14.82;100.00
41830;BME280;38614;43.472;23.936;2023-05-16T01:05:39;99779.47;;;14.85;100.00
41830;BME280;38614;43.472;23.936;2023-05-16T01:08:32;99767.13;;;14.68;100.00
41830;BME280;38614;43.472;23.936;2023-05-16T01:17:37;99800.13;;;14.83;100.00
41830;BME280;38614;43.472;23.936;2023-05-16T01:24:03;99805.66;;;14.69;100.00
41830;BME280;38614;43.472;23.936;2023-05-16T01:26:55;99818.38;;;14.63;100.00
41830;BME280;38614;43.472;23.936;2023-05-16T01:29:43;99806.06;;;14.75;100.00
41830;BME280;38614;43.472;23.936;2023-05-16T01:32:31;99792.16;;;14.53;100.00
41830;BME280;38614;43.472;23.936;2023-05-16T01:35:19;99780.56;;;14.44;100.00
41830;BME280;38614;43.472;23.936;2023-05-16T01:38:10;99770.22;;;14.38;100.00
41830;BME280;38614;43.472;23.936;2023-05-16T01:41:20;99772.59;;;14.29;100.00
41830;BME280;38614;43.472;23.936;2023-05-16T01:44:49;99740.38;;;14.10;100.00
41830;BME280;38614;43.472;23.936;2023-05-16T01:47:46;99744.38;;;14.23;100.00
41830;BME280;38614;43.472;23.936;2023-05-16T01:50:44;99727.69;;;14.12;100.00
41830;BME280;38614;43.472;23.936;2023-05-16T01:53:36;99723.72;;;14.10;100.00
41830;BME280;38614;43.472;23.936;2023-05-16T01:56:26;99750.78;;;14.34;100.00
41830;BME280;38614;43.472;23.936;2023-05-16T01:59:16;99740.84;;;14.33;100.00
41830;BME280;38614;43.472;23.936;2023-05-16T02:02:04;99717.75;;;14.11;100.00
41830;BME280;38614;43.472;23.936;2023-05-16T02:04:52;99734.06;;;14.27;100.00
41830;BME280;38614;43.472;23.936;2023-05-16T02:07:39;99737.25;;;14.33;100.00
41830;BME280;38614;43.472;23.936;2023-05-16T02:10:30;99740.03;;;14.25;100.00
41830;BME280;38614;43.472;23.936;2023-05-16T02:13:18;99745.16;;;14.20;100.00
41830;BME280;38614;43.472;23.936;2023-05-16T02:16:09;99744.78;;;14.18;100.00
41830;BME280;38614;43.472;23.936;2023-05-16T02:18:57;99763.84;;;14.19;100.00
41830;BME280;38614;43.472;23.936;2023-05-16T02:21:45;99754.69;;;14.19;100.00
41830;BME280;38614;43.472;23.936;2023-05-16T02:24:33;99763.84;;;14.16;100.00
41830;BME280;38614;43.472;23.936;2023-05-16T02:27:21;99771.75;;;14.14;100.00
41830;BME280;38614;43.472;23.936;2023-05-16T02:30:10;99773.72;;;14.10;100.00
41830;BME280;38614;43.472;23.936;2023-05-16T02:32:58;99745.13;;;13.98;100.00
41830;BME280;38614;43.472;23.936;2023-05-16T02:35:46;99755.03;;;14.03;100.00
41830;BME280;38614;43.472;23.936;2023-05-16T02:38:34;99755.03;;;14.00;100.00
41830;BME280;38614;43.472;23.936;2023-05-16T02:41:22;99741.03;;;13.75;100.00
41830;BME280;38614;43.472;23.936;2023-05-16T02:44:12;99716.06;;;13.71;100.00
41830;BME280;38614;43.472;23.936;2023-05-16T02:47:00;99735.53;;;13.85;100.00
41830;BME280;38614;43.472;23.936;2023-05-16T02:49:48;99696.22;;;13.69;100.00
41830;BME280;38614;43.472;23.936;2023-05-16T02:52:36;99723.19;;;13.76;100.00
41830;BME280;38614;43.472;23.936;2023-05-16T02:55:24;99749.84;;;13.91;100.00
41830;BME280;38614;43.472;23.936;2023-05-16T02:58:12;99744.28;;;13.91;100.00
41830;BME280;38614;43.472;23.936;2023-05-16T03:00:59;99720.44;;;13.83;100.00
41830;BME280;38614;43.472;23.936;2023-05-16T03:03:47;99750.63;;;13.95;100.00
41830;BME280;38614;43.472;23.936;2023-05-16T03:06:35;99747.03;;;13.84;100.00
41830;BME280;38614;43.472;23.936;2023-05-16T03:09:41;99740.28;;;13.78;100.00
41830;BME280;38614;43.472;23.936;2023-05-16T03:12:28;99751.34;;;13.74;100.00
41830;BME280;38614;43.472;23.936;2023-05-16T03:15:16;99732.31;;;13.76;100.00
41830;BME280;38614;43.472;23.936;2023-05-16T03:18:04;99736.69;;;13.70;100.00
41830;BME280;38614;43.472;23.936;2023-05-16T03:20:52;99754.59;;;13.90;100.00
41830;BME280;38614;43.472;23.936;2023-05-16T03:23:42;99752.63;;;13.87;100.00
41830;BME280;38614;43.472;23.936;2023-05-16T03:26:30;99740.28;;;13.81;100.00
41830;BME280;38614;43.472;23.936;2023-05-16T03:29:18;99754.16;;;13.81;100.00
41830;BME280;38614;43.472;23.936;2023-05-16T03:32:06;99770.78;;;13.74;100.00
41830;BME280;38614;43.472;23.936;2023-05-16T03:34:54;99750.97;;;13.72;100.00
41830;BME280;38614;43.472;23.936;2023-05-16T03:37:42;99752.50;;;13.62;100.00
41830;BME280;38614;43.472;23.936;2023-05-16T03:40:30;99719.50;;;13.47;100.00
41830;BME280;38614;43.472;23.936;2023-05-16T03:43:18;99739.78;;;13.58;100.00
41830;BME280;38614;43.472;23.936;2023-05-16T03:46:06;99746.25;;;13.83;100.00
41830;BME280;38614;43.472;23.936;2023-05-16T03:48:54;99743.09;;;13.95;100.00
41830;BME280;38614;43.472;23.936;2023-05-16T03:51:42;99746.28;;;13.94;100.00
41830;BME280;38614;43.472;23.936;2023-05-16T03:54:30;99764.97;;;13.97;100.00
41830;BME280;38614;43.472;23.936;2023-05-16T03:57:21;99758.19;;;13.87;100.00
41830;BME280;38614;43.472;23.936;2023-05-16T04:00:15;99732.28;;;13.62;100.00
41830;BME280;38614;43.472;23.936;2023-05-16T04:03:05;99739.00;;;13.64;100.00
41830;BME280;38614;43.472;23.936;2023-05-16T04:05:53;99760.47;;;13.71;100.00
41830;BME280;38614;43.472;23.936;2023-05-16T04:08:44;99752.81;;;13.47;100.00
41830;BME280;38614;43.472;23.936;2023-05-16T04:11:32;99766.06;;;13.78;100.00
41830;BME280;38614;43.472;23.936;2023-05-16T04:14:23;99776.78;;;13.80;100.00
41830;BME280;38614;43.472;23.936;2023-05-16T04:17:11;99776.38;;;13.81;100.00
41830;BME280;38614;43.472;23.936;2023-05-16T04:19:59;99756.50;;;13.68;100.00
41830;BME280;38614;43.472;23.936;2023-05-16T04:22:47;99773.63;;;13.85;100.00
41830;BME280;38614;43.472;23.936;2023-05-16T04:25:35;99773.25;;;13.93;100.00
41830;BME280;38614;43.472;23.936;2023-05-16T04:28:23;99772.78;;;13.77;100.00
41830;BME280;38614;43.472;23.936;2023-05-16T04:31:10;99762.50;;;13.81;100.00
41830;BME280;38614;43.472;23.936;2023-05-16T04:34:00;99775.19;;;13.86;100.00
41830;BME280;38614;43.472;23.936;2023-05-16T04:36:48;99784.41;;;13.97;100.00
41830;BME280;38614;43.472;23.936;2023-05-16T04:39:37;99797.47;;;13.93;100.00
41830;BME280;38614;43.472;23.936;2023-05-16T04:42:24;99786.75;;;13.91;100.00
41830;BME280;38614;43.472;23.936;2023-05-16T04:45:13;99784.84;;;14.06;100.00
41830;BME280;38614;43.472;23.936;2023-05-16T04:48:01;99791.22;;;14.17;100.00
41830;BME280;38614;43.472;23.936;2023-05-16T04:50:49;99769.69;;;13.93;100.00
41830;BME280;38614;43.472;23.936;2023-05-16T04:53:36;99778.50;;;14.13;100.00
41830;BME280;38614;43.472;23.936;2023-05-16T04:56:24;99781.69;;;14.18;100.00
41830;BME280;38614;43.472;23.936;2023-05-16T04:59:13;99780.13;;;14.28;100.00
41830;BME280;38614;43.472;23.936;2023-05-16T05:02:01;99753.09;;;14.11;100.00
41830;BME280;38614;43.472;23.936;2023-05-16T05:04:49;99784.94;;;14.35;100.00
41830;BME280;38614;43.472;23.936;2023-05-16T05:07:37;99797.59;;;14.32;100.00
41830;BME280;38614;43.472;23.936;2023-05-16T05:10:24;99797.19;;;14.23;100.00
41830;BME280;38614;43.472;23.936;2023-05-16T05:13:13;99791.63;;;14.19;100.00
41830;BME280;38614;43.472;23.936;2023-05-16T05:16:01;99786.44;;;14.11;100.00
41830;BME280;38614;43.472;23.936;2023-05-16T05:18:51;99793.53;;;13.97;100.00
41830;BME280;38614;43.472;23.936;2023-05-16T05:21:39;99799.91;;;14.12;100.00
41830;BME280;38614;43.472;23.936;2023-05-16T05:24:27;99778.72;;;13.76;100.00
41830;BME280;38614;43.472;23.936;2023-05-16T05:27:15;99795.88;;;13.92;100.00
41830;BME280;38614;43.472;23.936;2023-05-16T05:30:03;99805.03;;;14.00;100.00
41830;BME280;38614;43.472;23.936;2023-05-16T05:32:51;99797.09;;;13.98;100.00
41830;BME280;38614;43.472;23.936;2023-05-16T05:35:39;99789.63;;;14.23;100.00
41830;BME280;38614;43.472;23.936;2023-05-16T05:38:27;99790.81;;;14.15;100.00
41830;BME280;38614;43.472;23.936;2023-05-16T05:41:15;99801.69;;;14.56;100.00
41830;BME280;38614;43.472;23.936;2023-05-16T05:44:03;99801.25;;;14.47;100.00
41830;BME280;38614;43.472;23.936;2023-05-16T05:46:51;99804.88;;;14.62;100.00
41830;BME280;38614;43.472;23.936;2023-05-16T05:49:39;99810.38;;;14.51;100.00
41830;BME280;38614;43.472;23.936;2023-05-16T05:52:30;99810.84;;;14.64;100.00
41830;BME280;38614;43.472;23.936;2023-05-16T05:55:18;99805.69;;;14.80;100.00
41830;BME280;38614;43.472;23.936;2023-05-16T05:58:05;99805.69;;;14.98;100.00
41830;BME280;38614;43.472;23.936;2023-05-16T06:00:53;99816.41;;;15.06;100.00
41830;BME280;38614;43.472;23.936;2023-05-16T06:03:42;99807.69;;;15.11;100.00
41830;BME280;38614;43.472;23.936;2023-05-16T06:06:29;99794.56;;;15.26;100.00
41830;BME280;38614;43.472;23.936;2023-05-16T06:09:18;99796.91;;;15.56;100.00
41830;BME280;38614;43.472;23.936;2023-05-16T06:12:06;99782.59;;;15.47;100.00
41830;BME280;38614;43.472;23.936;2023-05-16T06:15:19;99806.06;;;15.64;100.00
41830;BME280;38614;43.472;23.936;2023-05-16T06:18:07;99806.00;;;15.82;100.00
41830;BME280;38614;43.472;23.936;2023-05-16T06:20:55;99783.34;;;15.73;100.00
41830;BME280;38614;43.472;23.936;2023-05-16T06:23:46;99796.44;;;15.93;100.00
41830;BME280;38614;43.472;23.936;2023-05-16T06:26:35;99794.41;;;15.98;100.00
41830;BME280;38614;43.472;23.936;2023-05-16T06:29:22;99770.91;;;15.99;100.00
41830;BME280;38614;43.472;23.936;2023-05-16T06:32:10;99786.41;;;16.10;100.00
41830;BME280;38614;43.472;23.936;2023-05-16T06:35:02;99781.09;;;16.34;100.00
41830;BME280;38614;43.472;23.936;2023-05-16T06:37:51;99792.69;;;16.29;100.00
41830;BME280;38614;43.472;23.936;2023-05-16T06:40:38;99778.75;;;16.29;100.00
41830;BME280;38614;43.472;23.936;2023-05-16T06:43:26;99765.47;;;16.47;100.00
41830;BME280;38614;43.472;23.936;2023-05-16T06:46:14;99786.16;;;16.57;100.00
41830;BME280;38614;43.472;23.936;2023-05-16T06:49:03;99765.78;;;16.63;100.00
41830;BME280;38614;43.472;23.936;2023-05-16T06:51:54;99742.25;;;16.64;100.00
41830;BME280;38614;43.472;23.936;2023-05-16T06:54:41;99758.31;;;17.05;100.00
41830;BME280;38614;43.472;23.936;2023-05-16T06:57:29;99736.88;;;16.91;100.00
41830;BME280;38614;43.472;23.936;2023-05-16T07:00:17;99767.72;;;17.22;100.00
41830;BME280;38614;43.472;23.936;2023-05-16T07:03:05;99757.69;;;17.28;100.00
41830;BME280;38614;43.472;23.936;2023-05-16T07:05:56;99764.06;;;17.28;100.00
41830;BME280;38614;43.472;23.936;2023-05-16T07:08:44;99741.34;;;17.26;100.00
41830;BME280;38614;43.472;23.936;2023-05-16T07:11:32;99742.06;;;17.34;100.00
41830;BME280;38614;43.472;23.936;2023-05-16T07:14:20;99691.47;;;17.62;100.00
41830;BME280;38614;43.472;23.936;2023-05-16T07:17:08;99739.81;;;18.24;100.00
41830;BME280;38614;43.472;23.936;2023-05-16T07:19:56;99745.94;;;18.42;100.00
41830;BME280;38614;43.472;23.936;2023-05-16T07:22:44;99724.81;;;18.38;100.00
41830;BME280;38614;43.472;23.936;2023-05-16T07:25:32;99717.81;;;17.95;100.00
41830;BME280;38614;43.472;23.936;2023-05-16T07:28:20;99721.09;;;17.90;100.00
41830;BME280;38614;43.472;23.936;2023-05-16T07:31:11;99702.38;;;17.87;100.00
41830;BME280;38614;43.472;23.936;2023-05-16T07:33:59;99684.47;;;17.47;100.00
41830;BME280;38614;43.472;23.936;2023-05-16T07:36:47;99701.22;;;17.47;100.00
41830;BME280;38614;43.472;23.936;2023-05-16T07:39:35;99711.53;;;17.16;100.00
41830;BME280;38614;43.472;23.936;2023-05-16T07:42:23;99748.78;;;17.40;100.00
41830;BME280;38614;43.472;23.936;2023-05-16T07:45:11;99754.16;;;17.24;100.00
41830;BME280;38614;43.472;23.936;2023-05-16T07:47:59;99762.31;;;17.45;100.00
41830;BME280;38614;43.472;23.936;2023-05-16T07:50:47;99742.91;;;17.69;100.00
41830;BME280;38614;43.472;23.936;2023-05-16T07:53:35;99725.78;;;17.63;100.00
41830;BME280;38614;43.472;23.936;2023-05-16T07:56:22;99724.91;;;17.73;100.00
41830;BME280;38614;43.472;23.936;2023-05-16T07:59:10;99730.91;;;17.72;100.00
41830;BME280;38614;43.472;23.936;2023-05-16T08:01:58;99733.56;;;17.82;100.00
41830;BME280;38614;43.472;23.936;2023-05-16T08:04:46;99750.06;;;18.04;100.00
41830;BME280;38614;43.472;23.936;2023-05-16T08:07:35;99807.16;;;17.72;100.00
41830;BME280;38614;43.472;23.936;2023-05-16T08:10:23;99782.34;;;17.78;100.00
41830;BME280;38614;43.472;23.936;2023-05-16T08:13:13;99758.59;;;17.93;100.00
41830;BME280;38614;43.472;23.936;2023-05-16T08:16:00;99745.09;;;17.88;100.00
41830;BME280;38614;43.472;23.936;2023-05-16T08:18:48;99716.13;;;17.67;100.00
41830;BME280;38614;43.472;23.936;2023-05-16T08:21:36;99774.84;;;18.02;100.00
41830;BME280;38614;43.472;23.936;2023-05-16T08:24:24;99743.16;;;17.81;100.00
41830;BME280;38614;43.472;23.936;2023-05-16T08:27:12;99699.13;;;17.55;100.00
41830;BME280;38614;43.472;23.936;2023-05-16T08:30:00;99714.75;;;17.49;100.00
41830;BME280;38614;43.472;23.936;2023-05-16T08:32:48;99718.00;;;17.81;100.00
41830;BME280;38614;43.472;23.936;2023-05-16T08:35:35;99711.34;;;17.68;100.00
41830;BME280;38614;43.472;23.936;2023-05-16T08:38:23;99684.31;;;17.61;100.00
41830;BME280;38614;43.472;23.936;2023-05-16T08:41:12;99703.69;;;17.76;100.00
41830;BME280;38614;43.472;23.936;2023-05-16T08:44:03;99692.56;;;17.72;100.00
41830;BME280;38614;43.472;23.936;2023-05-16T08:47:09;99651.16;;;17.63;100.00
41830;BME280;38614;43.472;23.936;2023-05-16T08:50:02;99608.81;;;17.34;100.00
41830;BME280;38614;43.472;23.936;2023-05-16T08:52:51;99651.28;;;17.87;100.00
41830;BME280;38614;43.472;23.936;2023-05-16T08:55:41;99613.47;;;17.75;100.00
41830;BME280;38614;43.472;23.936;2023-05-16T08:58:33;99721.25;;;17.76;100.00
41830;BME280;38614;43.472;23.936;2023-05-16T09:01:22;99779.06;;;18.17;100.00
41830;BME280;38614;43.472;23.936;2023-05-16T09:04:10;99746.44;;;18.07;100.00
41830;BME280;38614;43.472;23.936;2023-05-16T09:07:01;99787.84;;;17.85;100.00
41830;BME280;38614;43.472;23.936;2023-05-16T09:09:49;99742.97;;;17.95;100.00
41830;BME280;38614;43.472;23.936;2023-05-16T09:12:38;99744.00;;;18.09;100.00
41830;BME280;38614;43.472;23.936;2023-05-16T09:15:31;99744.66;;;18.20;100.00
41830;BME280;38614;43.472;23.936;2023-05-16T09:18:20;99742.72;;;18.44;100.00
41830;BME280;38614;43.472;23.936;2023-05-16T09:21:08;99736.47;;;18.60;100.00
41830;BME280;38614;43.472;23.936;2023-05-16T09:24:03;99746.19;;;18.51;100.00
41830;BME280;38614;43.472;23.936;2023-05-16T09:26:53;99688.91;;;18.60;100.00
41830;BME280;38614;43.472;23.936;2023-05-16T09:29:42;99686.31;;;18.96;100.00
41830;BME280;38614;43.472;23.936;2023-05-16T09:32:30;99690.34;;;18.95;100.00
41830;BME280;38614;43.472;23.936;2023-05-16T09:35:19;99680.97;;;19.05;100.00
41830;BME280;38614;43.472;23.936;2023-05-16T09:38:28;99729.31;;;19.09;100.00
41830;BME280;38614;43.472;23.936;2023-05-16T09:41:20;99725.69;;;19.32;100.00
41830;BME280;38614;43.472;23.936;2023-05-16T09:44:09;99686.09;;;19.30;100.00
41830;BME280;38614;43.472;23.936;2023-05-16T09:46:57;99697.88;;;19.41;100.00
41830;BME280;38614;43.472;23.936;2023-05-16T09:49:45;99721.03;;;19.45;100.00
41830;BME280;38614;43.472;23.936;2023-05-16T09:52:36;99688.03;;;19.56;100.00
41830;BME280;38614;43.472;23.936;2023-05-16T09:56:12;99715.69;;;19.94;100.00
41830;BME280;38614;43.472;23.936;2023-05-16T09:59:00;99702.84;;;19.33;100.00
41830;BME280;38614;43.472;23.936;2023-05-16T10:01:48;99714.25;;;19.23;100.00
41830;BME280;38614;43.472;23.936;2023-05-16T10:04:37;99726.44;;;19.13;100.00
41830;BME280;38614;43.472;23.936;2023-05-16T10:07:26;99672.28;;;18.99;100.00
41830;BME280;38614;43.472;23.936;2023-05-16T10:10:15;99698.66;;;18.98;100.00
41830;BME280;38614;43.472;23.936;2023-05-16T10:13:04;99701.31;;;18.86;100.00
41830;BME280;38614;43.472;23.936;2023-05-16T10:15:58;99647.63;;;18.67;100.00
41830;BME280;38614;43.472;23.936;2023-05-16T10:18:46;99673.44;;;18.78;100.00
41830;BME280;38614;43.472;23.936;2023-05-16T10:21:36;99632.59;;;18.58;100.00
41830;BME280;38614;43.472;23.936;2023-05-16T10:24:33;99626.34;;;18.23;100.00
41830;BME280;38614;43.472;23.936;2023-05-16T10:27:24;99661.06;;;18.52;100.00
41830;BME280;38614;43.472;23.936;2023-05-16T10:30:13;99641.38;;;18.33;100.00
41830;BME280;38614;43.472;23.936;2023-05-16T10:33:02;99628.06;;;18.17;100.00
41830;BME280;38614;43.472;23.936;2023-05-16T10:35:51;99605.78;;;18.10;100.00
41830;BME280;38614;43.472;23.936;2023-05-16T10:38:39;99580.00;;;17.72;100.00
41830;BME280;38614;43.472;23.936;2023-05-16T10:41:28;99629.31;;;18.12;100.00
41830;BME280;38614;43.472;23.936;2023-05-16T10:44:18;99639.41;;;18.06;100.00
41830;BME280;38614;43.472;23.936;2023-05-16T10:47:05;99643.97;;;17.93;100.00
41830;BME280;38614;43.472;23.936;2023-05-16T10:49:53;99664.41;;;17.90;100.00
41830;BME280;38614;43.472;23.936;2023-05-16T10:52:41;99677.44;;;18.00;100.00
41830;BME280;38614;43.472;23.936;2023-05-16T10:55:29;99656.16;;;17.79;100.00
41830;BME280;38614;43.472;23.936;2023-05-16T11:01:31;99670.03;;;17.86;100.00
41830;BME280;38614;43.472;23.936;2023-05-16T11:04:19;99695.94;;;17.90;100.00
41830;BME280;38614;43.472;23.936;2023-05-16T11:07:07;99697.94;;;17.90;100.00
41830;BME280;38614;43.472;23.936;2023-05-16T11:10:20;99701.53;;;17.90;100.00
41830;BME280;38614;43.472;23.936;2023-05-16T11:13:08;99675.94;;;17.92;100.00
41830;BME280;38614;43.472;23.936;2023-05-16T11:16:27;99678.28;;;17.97;100.00
41830;BME280;38614;43.472;23.936;2023-05-16T11:19:34;99684.66;;;17.98;100.00
41830;BME280;38614;43.472;23.936;2023-05-16T11:22:25;99687.50;;;17.94;100.00
41830;BME280;38614;43.472;23.936;2023-05-16T11:25:13;99676.09;;;17.81;100.00
41830;BME280;38614;43.472;23.936;2023-05-16T11:28:03;99690.19;;;18.01;100.00
41830;BME280;38614;43.472;23.936;2023-05-16T11:30:53;99679.44;;;18.00;100.00
41830;BME280;38614;43.472;23.936;2023-05-16T11:33:43;99653.91;;;17.98;100.00
41830;BME280;38614;43.472;23.936;2023-05-16T11:36:31;99645.53;;;17.98;100.00
41830;BME280;38614;43.472;23.936;2023-05-16T11:39:21;99634.00;;;17.92;100.00
41830;BME280;38614;43.472;23.936;2023-05-16T11:42:12;99647.13;;;17.95;100.00
41830;BME280;38614;43.472;23.936;2023-05-16T11:48:00;99603.78;;;17.83;100.00
41830;BME280;38614;43.472;23.936;2023-05-16T11:50:49;99631.41;;;18.05;100.00
41830;BME280;38614;43.472;23.936;2023-05-16T11:53:40;99636.19;;;18.08;100.00
41830;BME280;38614;43.472;23.936;2023-05-16T11:56:27;99606.13;;;17.88;100.00
41830;BME280;38614;43.472;23.936;2023-05-16T11:59:16;99611.56;;;17.99;100.00
41830;BME280;38614;43.472;23.936;2023-05-16T12:02:04;99617.78;;;18.10;100.00
41830;BME280;38614;43.472;23.936;2023-05-16T12:04:55;99611.84;;;18.05;100.00
41830;BME280;38614;43.472;23.936;2023-05-16T12:07:43;99629.22;;;18.19;100.00
41830;BME280;38614;43.472;23.936;2023-05-16T12:10:35;99617.88;;;18.03;100.00
41830;BME280;38614;43.472;23.936;2023-05-16T12:13:25;99642.50;;;18.12;100.00
41830;BME280;38614;43.472;23.936;2023-05-16T12:16:15;99638.97;;;18.08;100.00
41830;BME280;38614;43.472;23.936;2023-05-16T12:19:07;99637.16;;;17.98;100.00
41830;BME280;38614;43.472;23.936;2023-05-16T12:21:55;99624.38;;;17.97;100.00
41830;BME280;38614;43.472;23.936;2023-05-16T12:24:43;99606.38;;;17.71;100.00
41830;BME280;38614;43.472;23.936;2023-05-16T12:27:34;99622.56;;;17.83;100.00
41830;BME280;38614;43.472;23.936;2023-05-16T12:30:23;99619.34;;;17.84;100.00
41830;BME280;38614;43.472;23.936;2023-05-16T12:33:13;99622.13;;;17.84;100.00
41830;BME280;38614;43.472;23.936;2023-05-16T12:36:12;99621.72;;;17.86;100.00
41830;BME280;38614;43.472;23.936;2023-05-16T12:39:06;99627.03;;;17.77;100.00
41830;BME280;38614;43.472;23.936;2023-05-16T12:41:55;99632.00;;;17.92;100.00
41830;BME280;38614;43.472;23.936;2023-05-16T12:44:44;99624.94;;;17.84;100.00
41830;BME280;38614;43.472;23.936;2023-05-16T12:47:37;99635.28;;;17.87;100.00
41830;BME280;38614;43.472;23.936;2023-05-16T12:50:25;99642.19;;;17.79;100.00
41830;BME280;38614;43.472;23.936;2023-05-16T12:53:15;99611.69;;;17.58;100.00
41830;BME280;38614;43.472;23.936;2023-05-16T12:56:03;99639.50;;;17.69;100.00
41830;BME280;38614;43.472;23.936;2023-05-16T12:58:51;99637.31;;;17.53;100.00
41830;BME280;38614;43.472;23.936;2023-05-16T13:01:39;99628.94;;;17.53;100.00
41830;BME280;38614;43.472;23.936;2023-05-16T13:04:29;99628.06;;;17.59;100.00
41830;BME280;38614;43.472;23.936;2023-05-16T13:07:16;99645.97;;;17.62;100.00
41830;BME280;38614;43.472;23.936;2023-05-16T13:10:10;99655.22;;;17.59;100.00
41830;BME280;38614;43.472;23.936;2023-05-16T13:12:58;99648.28;;;17.67;100.00
41830;BME280;38614;43.472;23.936;2023-05-16T13:15:46;99633.03;;;17.75;100.00
41830;BME280;38614;43.472;23.936;2023-05-16T13:18:34;99617.25;;;17.61;100.00
41830;BME280;38614;43.472;23.936;2023-05-16T13:21:23;99614.28;;;17.76;100.00
41830;BME280;38614;43.472;23.936;2023-05-16T13:24:10;99618.19;;;17.82;100.00
41830;BME280;38614;43.472;23.936;2023-05-16T13:26:58;99610.00;;;17.94;100.00
41830;BME280;38614;43.472;23.936;2023-05-16T13:29:46;99597.75;;;17.88;100.00
41830;BME280;38614;43.472;23.936;2023-05-16T13:32:34;99614.66;;;18.05;100.00
41830;BME280;38614;43.472;23.936;2023-05-16T13:35:22;99611.03;;;18.08;100.00
41830;BME280;38614;43.472;23.936;2023-05-16T13:38:10;99579.06;;;17.82;100.00
41830;BME280;38614;43.472;23.936;2023-05-16T13:40:57;99596.28;;;18.04;100.00
41830;BME280;38614;43.472;23.936;2023-05-16T13:43:45;99591.97;;;18.26;100.00
41830;BME280;38614;43.472;23.936;2023-05-16T13:46:33;99599.84;;;18.31;100.00
41830;BME280;38614;43.472;23.936;2023-05-16T13:49:21;99585.31;;;18.40;100.00
41830;BME280;38614;43.472;23.936;2023-05-16T13:52:10;99557.91;;;18.08;100.00
41830;BME280;38614;43.472;23.936;2023-05-16T13:54:58;99586.88;;;18.44;100.00
41830;BME280;38614;43.472;23.936;2023-05-16T13:57:49;99582.97;;;18.62;100.00
41830;BME280;38614;43.472;23.936;2023-05-16T14:00:39;99566.06;;;18.45;100.00
41830;BME280;38614;43.472;23.936;2023-05-16T14:03:36;99565.44;;;18.58;100.00
41830;BME280;38614;43.472;23.936;2023-05-16T14:06:24;99581.13;;;18.51;100.00
41830;BME280;38614;43.472;23.936;2023-05-16T14:09:14;99585.69;;;18.42;100.00
41830;BME280;38614;43.472;23.936;2023-05-16T14:12:06;99585.63;;;18.45;100.00
41830;BME280;38614;43.472;23.936;2023-05-16T14:14:54;99571.78;;;18.62;100.00
41830;BME280;38614;43.472;23.936;2023-05-16T14:17:42;99560.19;;;18.83;100.00
41830;BME280;38614;43.472;23.936;2023-05-16T14:20:30;99567.94;;;18.95;100.00
41830;BME280;38614;43.472;23.936;2023-05-16T14:23:18;99573.28;;;19.10;100.00
41830;BME280;38614;43.472;23.936;2023-05-16T14:26:06;99564.09;;;19.09;100.00
41830;BME280;38614;43.472;23.936;2023-05-16T14:28:54;99580.38;;;19.14;100.00
41830;BME280;38614;43.472;23.936;2023-05-16T14:31:42;99583.91;;;19.18;100.00
41830;BME280;38614;43.472;23.936;2023-05-16T14:34:30;99584.25;;;19.20;100.00
41830;BME280;38614;43.472;23.936;2023-05-16T14:37:18;99559.63;;;18.92;100.00
41830;BME280;38614;43.472;23.936;2023-05-16T14:43:12;99578.38;;;19.15;100.00
41830;BME280;38614;43.472;23.936;2023-05-16T14:46:00;99573.63;;;19.12;100.00
41830;BME280;38614;43.472;23.936;2023-05-16T14:48:48;99582.34;;;19.17;100.00
41830;BME280;38614;43.472;23.936;2023-05-16T14:51:36;99570.25;;;19.00;100.00
41830;BME280;38614;43.472;23.936;2023-05-16T14:54:23;99576.78;;;18.94;100.00